createdAt,value
2022-08-23T00:03:26.536Z,5.00
2022-08-23T00:08:30.116Z,6.00
2022-08-23T00:13:47.262Z,5.80
2022-08-23T00:18:51.160Z,5.00
2022-08-23T00:23:53.925Z,6.20
2022-08-23T00:28:58.103Z,4.80
2022-08-23T00:34:01.083Z,6.00
2022-08-23T00:39:04.511Z,5.80
2022-08-23T00:44:41.627Z,7.20
2022-08-23T00:49:45.264Z,7.00
2022-08-23T00:54:47.995Z,5.00
2022-08-23T00:59:52.448Z,6.00
2022-08-23T01:04:56.206Z,6.40
2022-08-23T01:10:03.304Z,6.80
2022-08-23T01:15:11.045Z,5.00
2022-08-23T01:20:15.177Z,5.00
2022-08-23T01:25:22.306Z,5.00
2022-08-23T01:30:26.693Z,6.80
2022-08-23T01:35:33.455Z,5.00
2022-08-23T01:40:39.240Z,5.00
2022-08-23T01:45:42.959Z,5.00
2022-08-23T01:50:47.764Z,5.00
2022-08-23T01:55:52.036Z,5.00
2022-08-23T02:00:56.356Z,5.40
2022-08-23T02:05:59.788Z,5.20
2022-08-23T02:11:10.026Z,5.00
2022-08-23T02:16:14.869Z,5.00
2022-08-23T02:21:18.055Z,5.00
2022-08-23T02:26:30.734Z,7.40
2022-08-23T02:31:34.191Z,7.00
2022-08-23T02:36:37.604Z,6.80
2022-08-23T02:41:42.282Z,6.00
2022-08-23T02:46:46.870Z,7.00
2022-08-23T02:51:51.015Z,8.80
2022-08-23T02:56:55.231Z,6.60
2022-08-23T03:01:59.326Z,6.20
2022-08-23T03:07:10.106Z,7.00
2022-08-23T03:12:15.314Z,7.00
2022-08-23T03:17:23.795Z,7.00
2022-08-23T03:22:26.611Z,6.00
2022-08-23T03:27:31.561Z,7.00
2022-08-23T03:32:41.356Z,6.00
2022-08-23T03:37:55.325Z,6.60
2022-08-23T03:43:01.289Z,6.60
2022-08-23T03:48:06.018Z,6.40
2022-08-23T03:53:12.191Z,6.20
2022-08-23T03:58:18.354Z,6.60
2022-08-23T04:03:21.397Z,6.80
2022-08-23T04:08:36.355Z,7.20
2022-08-23T04:13:42.332Z,7.80
2022-08-23T04:18:45.128Z,8.00
2022-08-23T04:23:49.758Z,10.00
2022-08-23T04:28:53.983Z,8.40
2022-08-23T04:33:56.867Z,8.00
2022-08-23T04:38:59.984Z,8.00
2022-08-23T04:44:05.604Z,7.80
2022-08-23T04:49:13.184Z,8.00
2022-08-23T04:54:21.215Z,8.20
2022-08-23T04:59:55.786Z,7.00
2022-08-23T05:04:58.599Z,8.00
2022-08-23T05:10:01.814Z,7.20
2022-08-23T05:15:06.724Z,7.40
2022-08-23T05:20:11.398Z,8.00
2022-08-23T05:25:14.889Z,8.60
2022-08-23T05:30:19.289Z,8.60
2022-08-23T05:35:22.835Z,8.00
2022-08-23T05:40:26.416Z,9.40
2022-08-23T05:45:46.196Z,10.60
2022-08-23T05:50:49.100Z,8.40
2022-08-23T05:55:51.932Z,10.80
2022-08-23T06:00:57.859Z,9.00
2022-08-23T06:06:00.881Z,12.20
2022-08-23T06:11:04.661Z,10.00
2022-08-23T06:16:15.442Z,10.80
2022-08-23T06:21:19.589Z,9.00
2022-08-23T06:26:26.175Z,9.20
2022-08-23T06:31:49.151Z,9.00
2022-08-23T06:37:00.923Z,9.00
2022-08-23T06:42:44.826Z,11.40
2022-08-23T06:47:49.093Z,9.60
2022-08-23T06:52:52.893Z,8.80
2022-08-23T06:58:15.665Z,8.00
2022-08-23T07:03:38.387Z,11.00
2022-08-23T07:08:59.950Z,8.80
2022-08-23T07:14:03.951Z,8.20
2022-08-23T07:19:09.182Z,8.00
2022-08-23T07:24:13.538Z,6.80
2022-08-23T07:29:16.768Z,7.20
2022-08-23T07:34:21.238Z,8.00
2022-08-23T07:39:24.346Z,8.00
2022-08-23T07:44:28.103Z,8.00
2022-08-23T07:49:32.714Z,8.00
2022-08-23T07:54:38.220Z,6.00
2022-08-23T07:59:54.762Z,4.00
2022-08-23T08:05:22.031Z,4.60
2022-08-23T08:10:26.617Z,3.60
2022-08-23T08:15:30.096Z,4.00
2022-08-23T08:20:45.469Z,4.00
2022-08-23T08:26:07.779Z,3.00
2022-08-23T08:31:13.204Z,4.00
2022-08-23T08:36:31.350Z,3.60
2022-08-23T08:41:48.473Z,4.00
2022-08-23T08:46:57.968Z,3.00
2022-08-23T08:52:06.649Z,4.00
2022-08-23T08:57:09.988Z,3.00
2022-08-23T09:02:32.755Z,3.00
2022-08-23T09:07:45.507Z,3.40
2022-08-23T09:12:52.306Z,3.00
2022-08-23T09:17:56.427Z,2.00
2022-08-23T09:23:07.131Z,3.80
2022-08-23T09:28:19.077Z,4.00
2022-08-23T09:33:22.771Z,4.00
2022-08-23T09:38:31.646Z,3.20
2022-08-23T09:43:44.655Z,4.80
2022-08-23T09:48:47.750Z,3.60
2022-08-23T09:54:07.672Z,3.20
2022-08-23T09:59:34.977Z,4.20
2022-08-23T10:04:47.264Z,4.80
2022-08-23T10:09:52.449Z,4.00
2022-08-23T10:14:55.508Z,4.40
2022-08-23T10:20:01.486Z,4.40
2022-08-23T10:25:08.474Z,4.20
2022-08-23T10:30:13.186Z,6.40
2022-08-23T10:35:38.685Z,5.00
2022-08-23T10:40:45.280Z,5.00
2022-08-23T10:45:48.177Z,5.00
2022-08-23T10:51:04.109Z,6.20
2022-08-23T10:56:13.547Z,5.80
2022-08-23T11:01:26.460Z,6.80
2022-08-23T11:06:47.018Z,5.00
2022-08-23T11:12:07.160Z,5.00
2022-08-23T11:17:25.327Z,4.00
2022-08-23T11:22:29.995Z,5.00
2022-08-23T11:27:37.860Z,4.40
2022-08-23T11:32:43.234Z,5.00
2022-08-23T11:37:53.284Z,6.40
2022-08-23T11:42:59.258Z,7.00
2022-08-23T11:48:09.907Z,4.80
2022-08-23T11:53:19.942Z,4.60
2022-08-23T11:58:27.390Z,4.80
2022-08-23T12:03:34.059Z,4.00
2022-08-23T12:08:53.506Z,4.00
2022-08-23T12:14:01.969Z,4.00
2022-08-23T12:19:13.516Z,4.00
2022-08-23T12:24:19.635Z,3.60
2022-08-23T12:29:32.702Z,4.00
2022-08-23T12:34:40.627Z,4.00
2022-08-23T12:39:50.192Z,4.20
2022-08-23T12:45:02.220Z,3.40
2022-08-23T12:50:09.173Z,3.40
2022-08-23T12:55:14.079Z,3.20
2022-08-23T13:00:20.747Z,2.20
2022-08-23T13:05:33.522Z,4.00
2022-08-23T13:10:37.567Z,4.00
2022-08-23T13:15:44.229Z,4.00
2022-08-23T13:20:47.319Z,4.00
2022-08-23T13:25:50.056Z,3.40
2022-08-23T13:31:01.197Z,3.00
2022-08-23T13:36:13.477Z,3.00
2022-08-23T13:41:29.836Z,4.20
2022-08-23T13:46:34.192Z,3.00
2022-08-23T13:51:38.822Z,3.00
2022-08-23T13:56:45.299Z,3.00
2022-08-23T14:01:49.583Z,2.00
2022-08-23T14:06:52.317Z,3.00
2022-08-23T14:11:56.478Z,3.00
2022-08-23T14:17:02.872Z,2.00
2022-08-23T14:22:06.059Z,2.00
2022-08-23T14:27:09.353Z,2.60
2022-08-23T14:32:13.494Z,2.00
2022-08-23T14:42:39.030Z,2.00
2022-08-23T14:47:44.885Z,2.80
2022-08-23T14:52:47.663Z,3.00
2022-08-23T14:57:51.668Z,2.60
2022-08-23T15:02:55.980Z,3.80
2022-08-23T15:07:58.824Z,3.00
2022-08-23T15:13:19.126Z,3.00
2022-08-23T15:18:25.743Z,2.00
2022-08-23T15:23:30.826Z,2.60
2022-08-23T15:28:33.739Z,2.80
2022-08-23T15:33:37.905Z,3.00
2022-08-23T15:38:41.654Z,3.40
2022-08-23T15:43:44.620Z,2.80
2022-08-23T15:48:50.271Z,3.00
2022-08-23T15:53:53.233Z,3.00
2022-08-23T15:58:56.059Z,3.40
2022-08-23T16:04:02.152Z,2.00
2022-08-23T16:09:05.597Z,2.20
2022-08-23T16:14:08.398Z,2.20
2022-08-23T16:19:12.683Z,2.00
2022-08-23T16:24:16.761Z,2.60
2022-08-23T16:29:20.410Z,3.00
2022-08-23T16:34:24.775Z,2.60
2022-08-23T16:39:27.786Z,3.00
2022-08-23T16:44:30.720Z,2.80
2022-08-23T16:49:35.010Z,3.60
2022-08-23T16:54:37.770Z,2.80
2022-08-23T16:59:40.765Z,2.00
2022-08-23T17:04:46.317Z,2.00
2022-08-23T17:09:50.670Z,2.00
2022-08-23T17:14:54.885Z,2.00
2022-08-23T17:19:59.036Z,3.00
2022-08-23T17:25:01.975Z,3.00
2022-08-23T17:30:05.478Z,3.00
2022-08-23T17:35:14.708Z,3.00
2022-08-23T17:40:25.500Z,3.00
2022-08-23T17:45:28.671Z,3.00
2022-08-23T17:50:32.849Z,3.20
2022-08-23T17:55:36.123Z,2.00
2022-08-23T18:00:39.486Z,3.40
2022-08-23T18:05:43.730Z,3.00
2022-08-23T18:10:46.592Z,2.00
2022-08-23T18:15:49.390Z,2.60
2022-08-23T18:20:53.519Z,2.00
2022-08-23T18:25:56.308Z,2.80
2022-08-23T18:31:03.571Z,3.00
2022-08-23T18:36:08.465Z,3.60
2022-08-23T18:41:13.125Z,5.00
2022-08-23T18:46:16.245Z,7.00
2022-08-23T18:51:20.582Z,5.00
2022-08-23T18:56:23.809Z,3.80
2022-08-23T19:01:29.030Z,4.00
2022-08-23T19:06:33.426Z,4.40
2022-08-23T19:11:36.438Z,5.00
2022-08-23T19:16:39.785Z,5.20
2022-08-23T19:21:43.930Z,4.40
2022-08-23T19:26:49.112Z,5.00
2022-08-23T19:31:52.912Z,5.40
2022-08-23T19:37:01.286Z,5.00
2022-08-23T19:42:09.699Z,5.00
2022-08-23T19:47:19.450Z,5.00
2022-08-23T19:52:23.716Z,5.00
2022-08-23T19:57:26.902Z,6.00
2022-08-23T20:02:29.736Z,6.00
2022-08-23T20:07:33.955Z,6.00
2022-08-23T20:12:36.800Z,5.20
2022-08-23T20:17:39.689Z,5.00
2022-08-23T20:23:01.194Z,6.00
2022-08-23T20:28:08.194Z,5.20
2022-08-23T20:33:10.966Z,5.20
2022-08-23T20:38:32.123Z,5.60
2022-08-23T20:43:38.907Z,5.00
2022-08-23T20:48:41.816Z,5.00
2022-08-23T20:53:46.116Z,4.60
2022-08-23T20:58:48.920Z,6.00
2022-08-23T21:03:52.153Z,5.00
2022-08-23T21:08:57.184Z,5.00
2022-08-23T21:14:00.841Z,5.00
2022-08-23T21:19:03.714Z,5.80
2022-08-23T21:24:08.881Z,5.00
2022-08-23T21:29:11.811Z,5.20
2022-08-23T21:34:14.557Z,5.80
2022-08-23T21:39:18.675Z,6.00
2022-08-23T21:44:21.974Z,4.00
2022-08-23T21:49:24.763Z,6.00
2022-08-23T21:54:29.017Z,6.00
2022-08-23T21:59:31.985Z,5.00
2022-08-23T22:04:34.729Z,4.80
2022-08-23T22:09:39.285Z,5.00
2022-08-23T22:14:42.086Z,5.40
2022-08-23T22:19:44.943Z,5.40
2022-08-23T22:24:49.186Z,5.20
2022-08-23T22:29:53.413Z,5.20
2022-08-23T22:34:56.160Z,5.00
2022-08-23T22:40:00.464Z,5.00
2022-08-23T22:45:03.350Z,6.00
2022-08-23T22:50:07.102Z,5.20
2022-08-23T22:55:11.341Z,5.00
2022-08-23T23:00:16.131Z,5.00
2022-08-23T23:05:19.307Z,6.00
2022-08-23T23:10:23.410Z,5.00
2022-08-23T23:15:26.257Z,6.00
2022-08-23T23:20:39.018Z,5.00
2022-08-23T23:25:43.705Z,5.40
2022-08-23T23:30:47.446Z,5.00
2022-08-23T23:35:51.072Z,5.00
2022-08-23T23:40:55.205Z,5.00
2022-08-23T23:45:58.095Z,4.80
2022-08-23T23:51:01.120Z,5.20
2022-08-23T23:56:06.710Z,5.00
